大分空港の過去48時間の天気

大分空港 (Oita)

現在時刻: 9/28 18:33 JST (9/28 09:33 UTC) 以下の時間は現地時間です。

過去48時間のMETAR気象情報
時間 風向 風速(m/s) 視程 気温(℃) 湿度(%) 気圧(hPa) 天気現象
28 18:00 3 10km以上 22 65 1011
28 17:00 北北東 2 10km以上 24 54 1011
28 16:00 3 10km以上 24 50 1011
28 15:00 北北東 3 10km以上 24 50 1012
28 14:00 5 10km以上 24 44 1012
28 13:00 6 10km以上 24 47 1013
28 12:00 北北東 7 10km以上 24 50 1014
28 11:00 北北東 7 10km以上 23 53 1014
28 10:00 北北東 7 10km以上 23 50 1015
28 09:00 6 10km以上 22 57 1015
28 08:00 北北西 4 10km以上 21 53 1015
28 07:00 北北西 3 10km以上 18 64 1015
27 22:00 6 10km以上 21 64 1014
27 21:00 北北西 6 10km以上 21 64 1014
27 20:00 北北西 6 10km以上 21 69 1014
27 19:00 北西 4 10km以上 22 65 1013
27 18:00 北西 4 10km以上 23 61 1012
27 17:00 4 10km以上 25 50 1012
27 16:00 北北東 5 10km以上 25 50 1012
27 15:00 北北東 5 10km以上 26 51 1012
27 14:00 北北東 6 10km以上 25 57 1012
27 13:00 北北東 6 10km以上 25 54 1012
27 12:00 北北東 6 10km以上 25 50 1013
27 11:00 北北東 6 10km以上 24 57 1014
27 10:00 北北東 5 10km以上 24 57 1014
27 09:00 6 10km以上 24 57 1013
27 08:00 北北西 6 10km以上 23 65 1013
27 07:00 北西 3 10km以上 21 73 1013
26 22:00 北西 3 10km以上 21 73 1012
26 21:00 北西 4 10km以上 22 69 1011
26 20:00 北西 4 10km以上 22 69 1011
26 19:00 北北西 5 10km以上 23 65 1010
RJFO 280900Z 36006KT 280V060 9999 FEW030 BKN/// 22/15 Q1011
RJFO 280800Z 03004KT 9999 FEW030 BKN/// 24/14 Q1011
RJFO 280700Z 01006KT 9999 FEW030 BKN/// 24/13 Q1011
RJFO 280600Z 02005KT 9999 FEW030 BKN/// 24/13 Q1012
RJFO 280500Z 01009KT 9999 FEW035 BKN/// 24/11 Q1012
RJFO 280400Z 01011KT 9999 FEW030 BKN/// 24/12 Q1013
RJFO 280300Z 03013KT 9999 FEW030 BKN/// 24/13 Q1014
RJFO 280200Z 02013KT 9999 FEW030 BKN/// 23/13 Q1014
RJFO 280100Z 02013KT 9999 FEW030 SCT/// 23/12 Q1015
RJFO 280000Z 01012KT 9999 FEW030 22/13 Q1015
RJFO 272300Z 33007KT 9999 FEW030 21/11 Q1015
RJFO 272200Z 33006KT 9999 FEW035 18/11 Q1015
RJFO 271300Z 36012KT 9999 FEW050 21/14 Q1014
RJFO 271200Z 34011KT 9999 FEW040 21/14 Q1014
RJFO 271100Z 34012KT 9999 FEW035 21/15 Q1014
RJFO 271000Z 32008KT 9999 FEW030 22/15 Q1013
RJFO 270900Z 32007KT 9999 FEW020 BKN050 23/15 Q1012
RJFO 270800Z 35007KT 9999 FEW020 BKN050 25/14 Q1012
RJFO 270700Z 03009KT 9999 FEW035 25/14 Q1012
RJFO 270600Z 03010KT 9999 FEW030 26/15 Q1012
RJFO 270500Z 03012KT 9999 FEW030 SCT060 25/16 Q1012
RJFO 270400Z 02011KT 9999 FEW030 25/15 Q1012
RJFO 270300Z 02011KT 9999 FEW020 SCT050 25/14 Q1013
RJFO 270200Z 02012KT 9999 FEW020 SCT030 24/15 Q1014
RJFO 270100Z 02010KT 9999 FEW015 SCT030 24/15 Q1014
RJFO 270000Z 35011KT 9999 FEW015 SCT060 24/15 Q1013
RJFO 262300Z 34012KT 9999 FEW015 SCT060 23/16 Q1013
RJFO 262200Z 31005KT 270V340 9999 FEW015 SCT050 21/16 Q1013
RJFO 261300Z 32006KT 9999 FEW030 BKN080 BKN/// 21/16 Q1012
RJFO 261200Z 32007KT 9999 FEW030 SCT050 BKN070 22/16 Q1011
RJFO 261100Z 32008KT 9999 FEW030 BKN060 22/16 Q1011
RJFO 261000Z 33009KT 9999 FEW030 BKN/// 23/16 Q1010